UAL1536 KRDU-KEWR
Flight info
| Callsign | UAL1536 |
|---|---|
| Flight time | N/A |
| Altitude | 33000 |
| Route | OXFRD5 CARML QUART PHLBO4 |
| Aircraft | B738/M-SDE2E3FGHIRWXY/LB1 |
Departure
| Time | 2026-05-07 00:50 |
|---|---|
| Airport | Raleigh-Durham International Airport (KRDU) |
Arrival
| Time | N/A |
|---|---|
| Airport | Newark Liberty International Airport (KEWR) |
| Time | Latitude | Longitude | Altitude | Speed | Heading |
|---|---|---|---|---|---|
| 2026-05-07 00:08 | 35.87502 | -78.79663 | 391 ft | 0 kts | 56° |
| 2026-05-07 00:33 | 35.87496 | -78.79674 | 391 ft | 4 kts | 51° |
| 2026-05-07 00:33 | 35.87484 | -78.79689 | 391 ft | 4 kts | 35° |
| 2026-05-07 00:34 | 35.87452 | -78.79702 | 391 ft | 4 kts | 345° |
| 2026-05-07 00:34 | 35.87434 | -78.79691 | 391 ft | 0 kts | 315° |
| 2026-05-07 00:36 | 35.87446 | -78.79706 | 391 ft | 4 kts | 315° |
| 2026-05-07 00:37 | 35.87472 | -78.79737 | 391 ft | 5 kts | 316° |
| 2026-05-07 00:37 | 35.87492 | -78.79761 | 390 ft | 3 kts | 316° |
| 2026-05-07 00:37 | 35.87516 | -78.79785 | 390 ft | 6 kts | 332° |
| 2026-05-07 00:37 | 35.87553 | -78.79771 | 390 ft | 7 kts | 44° |
| 2026-05-07 00:38 | 35.87592 | -78.79725 | 390 ft | 9 kts | 44° |
| 2026-05-07 00:38 | 35.87623 | -78.79686 | 390 ft | 10 kts | 47° |
| 2026-05-07 00:38 | 35.87674 | -78.79620 | 390 ft | 9 kts | 45° |
| 2026-05-07 00:38 | 35.87703 | -78.79584 | 391 ft | 3 kts | 44° |
| 2026-05-07 00:39 | 35.87712 | -78.79573 | 391 ft | 1 kts | 44° |
| 2026-05-07 00:39 | 35.87735 | -78.79547 | 391 ft | 7 kts | 44° |
| 2026-05-07 00:39 | 35.87804 | -78.79463 | 391 ft | 13 kts | 44° |
| 2026-05-07 00:39 | 35.87872 | -78.79378 | 391 ft | 14 kts | 45° |
| 2026-05-07 00:40 | 35.87918 | -78.79322 | 391 ft | 14 kts | 45° |
| 2026-05-07 00:40 | 35.87983 | -78.79241 | 391 ft | 13 kts | 46° |
| 2026-05-07 00:40 | 35.88033 | -78.79178 | 391 ft | 6 kts | 45° |
| 2026-05-07 00:40 | 35.88063 | -78.79142 | 391 ft | 7 kts | 45° |
| 2026-05-07 00:41 | 35.88102 | -78.79094 | 391 ft | 8 kts | 45° |
| 2026-05-07 00:41 | 35.88155 | -78.79045 | 390 ft | 11 kts | 6° |
| 2026-05-07 00:41 | 35.88237 | -78.79027 | 390 ft | 13 kts | 38° |
| 2026-05-07 00:41 | 35.88307 | -78.78942 | 390 ft | 15 kts | 44° |
| 2026-05-07 00:42 | 35.88372 | -78.78861 | 390 ft | 12 kts | 46° |
| 2026-05-07 00:42 | 35.88434 | -78.78785 | 390 ft | 14 kts | 45° |
| 2026-05-07 00:42 | 35.88506 | -78.78698 | 391 ft | 15 kts | 45° |
| 2026-05-07 00:42 | 35.88584 | -78.78600 | 391 ft | 17 kts | 45° |
| 2026-05-07 00:43 | 35.88652 | -78.78515 | 391 ft | 13 kts | 45° |
| 2026-05-07 00:43 | 35.88695 | -78.78461 | 391 ft | 9 kts | 45° |
| 2026-05-07 00:43 | 35.88701 | -78.78398 | 391 ft | 9 kts | 121° |
| 2026-05-07 00:43 | 35.88739 | -78.78301 | 391 ft | 14 kts | 45° |
| 2026-05-07 00:44 | 35.88795 | -78.78233 | 391 ft | 15 kts | 44° |
| 2026-05-07 00:44 | 35.88873 | -78.78136 | 391 ft | 16 kts | 45° |
| 2026-05-07 00:44 | 35.88950 | -78.78038 | 390 ft | 15 kts | 51° |
| 2026-05-07 00:44 | 35.88993 | -78.77926 | 391 ft | 14 kts | 67° |
| 2026-05-07 00:45 | 35.89049 | -78.77838 | 391 ft | 12 kts | 45° |
| 2026-05-07 00:45 | 35.89108 | -78.77765 | 391 ft | 12 kts | 45° |
| 2026-05-07 00:45 | 35.89162 | -78.77698 | 391 ft | 10 kts | 45° |
| 2026-05-07 00:45 | 35.89208 | -78.77651 | 391 ft | 8 kts | 19° |
| 2026-05-07 00:46 | 35.89252 | -78.77669 | 391 ft | 5 kts | 322° |
| 2026-05-07 00:46 | 35.89255 | -78.77672 | 391 ft | 0 kts | 319° |
| 2026-05-07 00:48 | 35.89256 | -78.77673 | 391 ft | 2 kts | 318° |
| 2026-05-07 00:48 | 35.89287 | -78.77709 | 391 ft | 9 kts | 316° |
| 2026-05-07 00:48 | 35.89307 | -78.77734 | 391 ft | 3 kts | 315° |
| 2026-05-07 00:49 | 35.89350 | -78.77788 | 392 ft | 9 kts | 306° |
| 2026-05-07 00:49 | 35.89341 | -78.77857 | 391 ft | 5 kts | 229° |
| 2026-05-07 00:49 | 35.89334 | -78.77864 | 391 ft | 0 kts | 223° |
| 2026-05-07 00:49 | 35.89307 | -78.77898 | 391 ft | 30 kts | 224° |
| 2026-05-07 00:50 | 35.88933 | -78.78359 | 391 ft | 119 kts | 225° |
| 2026-05-07 00:50 | 35.88460 | -78.78939 | 409 ft | 168 kts | 224° |
| 2026-05-07 00:50 | 35.87176 | -78.80486 | 1165 ft | 208 kts | 225° |
| 2026-05-07 00:50 | 35.86170 | -78.81665 | 2371 ft | 201 kts | 225° |
| 2026-05-07 00:51 | 35.85116 | -78.82893 | 2832 ft | 213 kts | 225° |
| 2026-05-07 00:51 | 35.84031 | -78.84149 | 3202 ft | 220 kts | 225° |
| 2026-05-07 00:51 | 35.82908 | -78.85432 | 3666 ft | 221 kts | 225° |
| 2026-05-07 00:51 | 35.81767 | -78.86716 | 4145 ft | 223 kts | 225° |
| 2026-05-07 00:52 | 35.80613 | -78.87987 | 4647 ft | 223 kts | 225° |
| 2026-05-07 00:52 | 35.79526 | -78.89361 | 5112 ft | 222 kts | 242° |
| 2026-05-07 00:52 | 35.79130 | -78.91158 | 5556 ft | 222 kts | 272° |
| 2026-05-07 00:52 | 35.79622 | -78.92962 | 5960 ft | 229 kts | 300° |
| 2026-05-07 00:53 | 35.80691 | -78.94447 | 5994 ft | 238 kts | 309° |
| 2026-05-07 00:53 | 35.81927 | -78.95921 | 6310 ft | 255 kts | 315° |
| 2026-05-07 00:53 | 35.83929 | -78.96868 | 6965 ft | 280 kts | 354° |
| 2026-05-07 00:53 | 35.85530 | -78.96414 | 7486 ft | 298 kts | 21° |
| 2026-05-07 00:54 | 35.87249 | -78.94977 | 8161 ft | 305 kts | 29° |
| 2026-05-07 00:54 | 35.88449 | -78.93999 | 8581 ft | 308 kts | 27° |
| 2026-05-07 00:55 | 35.94483 | -78.89599 | 10430 ft | 334 kts | 24° |
| 2026-05-07 00:55 | 35.97306 | -78.87641 | 10781 ft | 358 kts | 24° |
| 2026-05-07 00:55 | 35.99503 | -78.86123 | 11360 ft | 364 kts | 24° |
| 2026-05-07 00:55 | 36.01716 | -78.84597 | 11895 ft | 363 kts | 24° |
| 2026-05-07 00:56 | 36.03906 | -78.83090 | 12078 ft | 370 kts | 24° |
| 2026-05-07 00:56 | 36.06163 | -78.81538 | 12776 ft | 372 kts | 24° |
| 2026-05-07 00:56 | 36.08421 | -78.79983 | 13600 ft | 372 kts | 24° |
| 2026-05-07 00:56 | 36.10687 | -78.78421 | 14277 ft | 375 kts | 24° |
| 2026-05-07 00:57 | 36.12979 | -78.76844 | 14909 ft | 379 kts | 24° |
| 2026-05-07 00:57 | 36.15295 | -78.75250 | 15566 ft | 383 kts | 23° |
| 2026-05-07 00:57 | 36.17637 | -78.73638 | 16202 ft | 387 kts | 23° |
| 2026-05-07 00:57 | 36.19999 | -78.72012 | 16845 ft | 391 kts | 22° |
| 2026-05-07 00:58 | 36.22386 | -78.70367 | 17501 ft | 395 kts | 22° |
| 2026-05-07 00:58 | 36.24800 | -78.68700 | 18123 ft | 399 kts | 22° |
| 2026-05-07 00:58 | 36.27232 | -78.67019 | 18691 ft | 402 kts | 22° |
| 2026-05-07 00:58 | 36.29645 | -78.65349 | 19253 ft | 404 kts | 22° |
| 2026-05-07 00:59 | 36.34613 | -78.61915 | 20317 ft | 412 kts | 21° |
| 2026-05-07 00:59 | 36.37190 | -78.60412 | 20838 ft | 407 kts | 11° |
| 2026-05-07 00:59 | 36.39899 | -78.59442 | 21380 ft | 405 kts | 6° |
| 2026-05-07 01:00 | 36.42637 | -78.58576 | 21903 ft | 408 kts | 6° |
| 2026-05-07 01:00 | 36.45398 | -78.57663 | 22435 ft | 413 kts | 7° |
| 2026-05-07 01:00 | 36.48203 | -78.56693 | 22922 ft | 418 kts | 7° |
| 2026-05-07 01:00 | 36.50995 | -78.55722 | 23469 ft | 421 kts | 7° |
| 2026-05-07 01:01 | 36.53820 | -78.54710 | 23905 ft | 424 kts | 7° |
| 2026-05-07 01:01 | 36.56630 | -78.53693 | 24281 ft | 428 kts | 8° |
| 2026-05-07 01:01 | 36.59508 | -78.52651 | 24703 ft | 432 kts | 8° |
| 2026-05-07 01:01 | 36.62396 | -78.51604 | 25147 ft | 432 kts | 8° |
| 2026-05-07 01:02 | 36.65302 | -78.50562 | 25483 ft | 437 kts | 8° |
| 2026-05-07 01:02 | 36.68240 | -78.49501 | 25858 ft | 441 kts | 8° |
| 2026-05-07 01:02 | 36.71204 | -78.48431 | 26117 ft | 447 kts | 8° |
| 2026-05-07 01:02 | 36.74203 | -78.47321 | 26486 ft | 453 kts | 12° |
| 2026-05-07 01:03 | 36.77057 | -78.45508 | 26853 ft | 467 kts | 26° |
| 2026-05-07 01:03 | 36.79789 | -78.43275 | 27245 ft | 471 kts | 27° |
| 2026-05-07 01:03 | 36.82517 | -78.40985 | 27574 ft | 475 kts | 28° |
| 2026-05-07 01:03 | 36.85267 | -78.38672 | 27912 ft | 478 kts | 28° |
| 2026-05-07 01:04 | 36.88035 | -78.36365 | 28251 ft | 480 kts | 27° |
| 2026-05-07 01:04 | 36.90832 | -78.34059 | 28609 ft | 483 kts | 27° |
| 2026-05-07 01:04 | 36.93631 | -78.31771 | 28701 ft | 492 kts | 27° |
| 2026-05-07 01:04 | 36.96509 | -78.29427 | 28971 ft | 495 kts | 27° |
| 2026-05-07 01:05 | 36.99401 | -78.27072 | 29365 ft | 496 kts | 27° |
| 2026-05-07 01:05 | 37.02296 | -78.24712 | 29731 ft | 498 kts | 27° |
| 2026-05-07 01:05 | 37.05207 | -78.22336 | 30020 ft | 501 kts | 27° |
| 2026-05-07 01:05 | 37.08136 | -78.19946 | 30271 ft | 504 kts | 26° |
| 2026-05-07 01:06 | 37.11078 | -78.17541 | 30551 ft | 506 kts | 26° |
| 2026-05-07 01:06 | 37.14033 | -78.15121 | 30797 ft | 510 kts | 25° |
| 2026-05-07 01:06 | 37.17026 | -78.12671 | 30862 ft | 517 kts | 25° |
| 2026-05-07 01:06 | 37.20045 | -78.10195 | 31060 ft | 520 kts | 25° |
| 2026-05-07 01:07 | 37.22045 | -78.08550 | 31305 ft | 519 kts | 25° |
| 2026-05-07 01:07 | 37.26057 | -78.05240 | 31939 ft | 512 kts | 24° |
| 2026-05-07 01:07 | 37.28985 | -78.02828 | 32360 ft | 509 kts | 23° |
| 2026-05-07 01:07 | 37.31939 | -78.00395 | 32739 ft | 507 kts | 22° |
| 2026-05-07 01:08 | 37.34891 | -77.97960 | 32948 ft | 511 kts | 23° |
| 2026-05-07 01:08 | 37.37668 | -77.95022 | 32876 ft | 535 kts | 40° |
| 2026-05-07 01:08 | 37.40019 | -77.91395 | 32921 ft | 535 kts | 44° |
| 2026-05-07 01:09 | 37.44493 | -77.83987 | 32914 ft | 529 kts | 44° |